createdAt,value
2019-02-20T00:00:06.344Z,0.00
2019-02-20T00:01:14.264Z,0.00
2019-02-20T00:02:06.259Z,0.00
2019-02-20T00:03:13.233Z,0.00
2019-02-20T00:04:06.238Z,0.00
2019-02-20T00:05:06.228Z,0.00
2019-02-20T00:06:06.235Z,0.00
2019-02-20T00:07:07.414Z,0.00
2019-02-20T00:08:06.198Z,0.00
2019-02-20T00:09:07.431Z,0.00
2019-02-20T00:10:07.285Z,0.00
2019-02-20T00:11:06.214Z,0.00
2019-02-20T00:12:06.300Z,0.00
2019-02-20T00:13:06.154Z,0.00
2019-02-20T00:14:08.275Z,0.00
2019-02-20T00:15:07.225Z,0.00
2019-02-20T00:16:06.105Z,0.00
2019-02-20T00:17:07.212Z,0.00
2019-02-20T00:18:06.084Z,0.00
2019-02-20T00:19:07.185Z,0.00
2019-02-20T00:20:06.092Z,0.00
2019-02-20T00:21:08.154Z,0.00
2019-02-20T00:22:06.057Z,0.00
2019-02-20T00:23:43.695Z,0.00
2019-02-20T00:24:06.027Z,0.00
2019-02-20T00:25:06.012Z,0.00
2019-02-20T00:26:05.996Z,0.00
2019-02-20T00:27:05.990Z,0.00
2019-02-20T00:28:08.126Z,0.00
2019-02-20T00:29:05.972Z,0.00
2019-02-20T00:30:07.008Z,0.00
2019-02-20T00:31:14.749Z,0.00
2019-02-20T00:32:05.950Z,0.00
2019-02-20T00:33:07.039Z,0.00
2019-02-20T00:34:05.919Z,0.00
2019-02-20T00:35:05.953Z,0.00
2019-02-20T00:36:05.973Z,0.00
2019-02-20T00:37:14.751Z,0.00
2019-02-20T00:38:05.870Z,0.00
2019-02-20T00:39:05.931Z,0.00
2019-02-20T00:40:05.842Z,0.00
2019-02-20T00:41:12.722Z,0.00
2019-02-20T00:42:05.834Z,0.00
2019-02-20T00:43:06.922Z,0.00
2019-02-20T00:44:05.793Z,0.00
2019-02-20T00:45:07.884Z,0.00
2019-02-20T00:46:05.784Z,0.00
2019-02-20T00:47:05.774Z,0.00
2019-02-20T00:48:05.746Z,0.00
2019-02-20T00:49:05.810Z,0.00
2019-02-20T00:50:05.725Z,0.00
2019-02-20T00:51:07.785Z,0.00
2019-02-20T00:52:06.886Z,0.00
2019-02-20T00:53:05.697Z,0.00
2019-02-20T00:54:05.743Z,0.00
2019-02-20T00:55:05.677Z,0.00
2019-02-20T00:56:05.686Z,0.00
2019-02-20T00:57:05.680Z,0.00
2019-02-20T00:58:05.723Z,0.00
2019-02-20T00:59:05.641Z,0.00
2019-02-20T01:00:06.674Z,0.00
2019-02-20T01:01:05.614Z,0.00
2019-02-20T01:02:05.860Z,0.00
2019-02-20T01:03:05.591Z,0.00
2019-02-20T01:04:05.631Z,0.00
2019-02-20T01:05:05.571Z,0.00
2019-02-20T01:06:05.656Z,0.00
2019-02-20T01:07:05.583Z,0.00
2019-02-20T01:08:05.626Z,0.00
2019-02-20T01:09:06.591Z,0.00
2019-02-20T01:10:05.515Z,0.00
2019-02-20T01:11:05.761Z,0.00
2019-02-20T01:12:05.503Z,0.00
2019-02-20T01:13:05.484Z,0.00
2019-02-20T01:14:05.503Z,0.00
2019-02-20T01:15:05.449Z,0.00
2019-02-20T01:16:05.690Z,0.00
2019-02-20T01:17:05.476Z,0.00
2019-02-20T01:18:05.446Z,0.00
2019-02-20T01:19:05.407Z,0.00
2019-02-20T01:20:05.507Z,0.00
2019-02-20T01:21:05.379Z,0.00
2019-02-20T01:22:06.409Z,0.00
2019-02-20T01:23:05.358Z,0.00
2019-02-20T01:24:05.379Z,0.00
2019-02-20T01:25:05.337Z,0.00
2019-02-20T01:26:06.439Z,0.00
2019-02-20T01:27:05.357Z,0.00
2019-02-20T01:28:05.350Z,0.00
2019-02-20T01:29:05.293Z,0.00
2019-02-20T01:30:06.343Z,0.00
2019-02-20T01:31:05.279Z,0.00
2019-02-20T01:32:05.382Z,0.00
2019-02-20T01:33:05.262Z,0.00
2019-02-20T01:34:05.245Z,0.00
2019-02-20T01:35:06.279Z,0.00
2019-02-20T01:36:05.230Z,0.00
2019-02-20T01:37:05.325Z,0.00
2019-02-20T01:38:05.205Z,0.00
2019-02-20T01:39:05.206Z,0.00
2019-02-20T01:40:05.185Z,0.00
2019-02-20T01:41:05.247Z,0.00
2019-02-20T01:42:05.194Z,0.00
2019-02-20T01:43:05.176Z,0.00
2019-02-20T01:44:05.138Z,0.00
2019-02-20T01:45:05.217Z,0.00
2019-02-20T01:46:05.128Z,0.00
2019-02-20T01:47:06.221Z,0.00
2019-02-20T01:48:05.111Z,0.00
2019-02-20T01:49:05.201Z,0.00
2019-02-20T01:50:05.069Z,0.00
2019-02-20T01:51:07.170Z,0.00
2019-02-20T01:52:05.059Z,0.00
2019-02-20T01:53:10.183Z,0.00
2019-02-20T01:54:05.028Z,0.00
2019-02-20T01:55:05.020Z,0.00
2019-02-20T01:56:05.061Z,0.00
2019-02-20T01:57:05.002Z,0.00
2019-02-20T01:58:11.743Z,0.00
2019-02-20T01:59:04.962Z,0.00
2019-02-20T02:00:04.956Z,0.00
2019-02-20T02:01:04.942Z,0.00
2019-02-20T02:02:05.008Z,0.00
2019-02-20T02:03:04.915Z,0.00
2019-02-20T02:04:05.004Z,0.00
2019-02-20T02:05:04.901Z,0.00
2019-02-20T02:06:04.955Z,0.00
2019-02-20T02:07:04.885Z,0.00
2019-02-20T02:08:05.895Z,0.00
2019-02-20T02:09:04.855Z,0.00
2019-02-20T02:10:04.906Z,0.00
2019-02-20T02:11:04.826Z,0.00
2019-02-20T02:12:04.898Z,0.00
2019-02-20T02:13:04.815Z,0.00
2019-02-20T02:14:05.903Z,0.00
2019-02-20T02:15:04.790Z,0.00
2019-02-20T02:16:04.789Z,0.00
2019-02-20T02:17:04.883Z,0.00
2019-02-20T02:18:04.769Z,0.00
2019-02-20T02:19:04.823Z,0.00
2019-02-20T02:20:04.739Z,0.00
2019-02-20T02:21:04.730Z,0.00
2019-02-20T02:22:04.722Z,0.00
2019-02-20T02:23:04.741Z,0.00
2019-02-20T02:24:04.701Z,0.00
2019-02-20T02:25:04.726Z,0.00
2019-02-20T02:26:10.650Z,0.00
2019-02-20T02:27:05.663Z,0.00
2019-02-20T02:28:04.685Z,0.00
2019-02-20T02:29:04.643Z,0.00
2019-02-20T02:30:04.673Z,0.00
2019-02-20T02:31:04.625Z,0.00
2019-02-20T02:32:04.717Z,0.00
2019-02-20T02:33:04.614Z,0.00
2019-02-20T02:34:04.635Z,0.00
2019-02-20T02:35:04.575Z,0.00
2019-02-20T02:36:05.596Z,0.00
2019-02-20T02:37:04.545Z,0.00
2019-02-20T02:38:04.660Z,0.00
2019-02-20T02:39:04.532Z,0.00
2019-02-20T02:40:05.579Z,0.00
2019-02-20T02:41:04.501Z,0.00
2019-02-20T02:42:04.547Z,0.00
2019-02-20T02:43:04.518Z,0.00
2019-02-20T02:44:04.519Z,0.00
2019-02-20T02:45:04.474Z,0.00
2019-02-20T02:46:05.489Z,0.00
2019-02-20T02:47:04.440Z,0.00
2019-02-20T02:48:04.539Z,0.00
2019-02-20T02:49:04.410Z,0.00
2019-02-20T02:50:04.431Z,0.00
2019-02-20T02:51:04.401Z,0.00
2019-02-20T02:52:04.475Z,0.00
2019-02-20T02:53:04.392Z,0.00
2019-02-20T02:54:05.433Z,0.00
2019-02-20T02:55:04.362Z,0.00
2019-02-20T02:56:04.447Z,0.00
2019-02-20T02:57:04.334Z,0.00
2019-02-20T02:58:04.342Z,0.00
2019-02-20T02:59:04.317Z,0.00
2019-02-20T03:00:05.334Z,0.00
2019-02-20T03:01:04.294Z,0.00
2019-02-20T03:02:04.350Z,0.00
2019-02-20T03:03:04.358Z,0.00
2019-02-20T03:04:04.257Z,0.00
2019-02-20T03:05:05.276Z,0.00
2019-02-20T03:06:04.236Z,0.00
2019-02-20T03:07:04.287Z,0.00
2019-02-20T03:08:04.240Z,0.00
2019-02-20T03:09:04.231Z,0.00
2019-02-20T03:10:04.216Z,0.00
2019-02-20T03:11:04.274Z,0.00
2019-02-20T03:12:04.163Z,0.00
2019-02-20T03:13:04.249Z,0.00
2019-02-20T03:14:04.169Z,0.00
2019-02-20T03:15:04.230Z,0.00
2019-02-20T03:16:04.123Z,0.00
2019-02-20T03:17:04.173Z,0.00
2019-02-20T03:18:04.110Z,0.00
2019-02-20T03:19:04.091Z,0.00
2019-02-20T03:20:04.168Z,0.00
2019-02-20T03:21:04.064Z,0.00
2019-02-20T03:22:04.112Z,0.00
2019-02-20T03:23:04.059Z,0.00
2019-02-20T03:24:04.043Z,0.00
2019-02-20T03:25:04.025Z,0.00
2019-02-20T03:26:10.736Z,0.00
2019-02-20T03:27:03.994Z,0.00
2019-02-20T03:28:04.067Z,0.00
2019-02-20T03:29:03.985Z,0.00
2019-02-20T03:30:04.065Z,0.00
2019-02-20T03:31:03.966Z,0.00
2019-02-20T03:32:04.009Z,0.00
2019-02-20T03:33:03.967Z,0.00
2019-02-20T03:34:04.037Z,0.00
2019-02-20T03:35:03.918Z,0.00
2019-02-20T03:36:03.969Z,0.00
2019-02-20T03:37:03.900Z,0.00
2019-02-20T03:38:04.977Z,0.00
2019-02-20T03:39:03.878Z,0.00
2019-02-20T03:40:03.869Z,0.00
2019-02-20T03:41:04.923Z,0.00
2019-02-20T03:42:03.850Z,0.00
2019-02-20T03:43:03.890Z,0.00
2019-02-20T03:44:03.818Z,0.00
2019-02-20T03:45:03.805Z,0.00
2019-02-20T03:46:03.801Z,0.00
2019-02-20T03:47:03.811Z,0.00
2019-02-20T03:48:03.786Z,0.00
2019-02-20T03:49:11.734Z,0.00
2019-02-20T03:50:03.762Z,0.00
2019-02-20T03:51:03.777Z,0.00
2019-02-20T03:52:03.723Z,0.00
2019-02-20T03:53:04.798Z,0.00
2019-02-20T03:54:03.703Z,0.00
2019-02-20T03:55:03.765Z,0.00
2019-02-20T03:56:03.705Z,0.00
2019-02-20T03:57:03.696Z,0.00
2019-02-20T03:58:03.688Z,0.00
2019-02-20T03:59:03.745Z,0.00
2019-02-20T04:00:03.642Z,0.00
2019-02-20T04:01:03.629Z,0.00
2019-02-20T04:02:03.636Z,0.00
2019-02-20T04:03:03.616Z,0.00
2019-02-20T04:04:03.669Z,0.00
2019-02-20T04:05:03.588Z,0.00
2019-02-20T04:06:03.644Z,0.00
2019-02-20T04:07:03.588Z,0.00
2019-02-20T04:08:03.600Z,0.00
2019-02-20T04:09:03.554Z,0.00
2019-02-20T04:10:03.596Z,0.00
2019-02-20T04:11:03.521Z,0.00
2019-02-20T04:12:03.671Z,0.00
2019-02-20T04:13:03.510Z,0.00
2019-02-20T04:14:03.553Z,0.00
2019-02-20T04:15:03.485Z,0.00
2019-02-20T04:16:03.499Z,0.00
2019-02-20T04:17:03.462Z,0.00
2019-02-20T04:18:04.496Z,0.00
2019-02-20T04:19:03.444Z,0.00
2019-02-20T04:20:03.454Z,0.00
2019-02-20T04:21:03.638Z,0.00
2019-02-20T04:22:03.414Z,0.00
2019-02-20T04:23:03.524Z,0.00
2019-02-20T04:24:03.385Z,0.00
2019-02-20T04:25:03.404Z,0.00
2019-02-20T04:26:03.366Z,0.00
2019-02-20T04:27:03.364Z,0.00
2019-02-20T04:28:03.321Z,0.00
2019-02-20T04:29:03.416Z,0.00
2019-02-20T04:30:03.326Z,0.00
2019-02-20T04:31:03.434Z,0.00
2019-02-20T04:32:03.283Z,0.00
2019-02-20T04:33:04.378Z,0.00
2019-02-20T04:34:03.300Z,0.00
2019-02-20T04:35:04.309Z,0.00
2019-02-20T04:36:03.245Z,0.00
2019-02-20T04:37:03.319Z,0.00
2019-02-20T04:38:03.226Z,0.00
2019-02-20T04:39:03.302Z,0.00
2019-02-20T04:40:03.200Z,0.00
2019-02-20T04:41:04.214Z,0.00
2019-02-20T04:42:03.181Z,0.00
2019-02-20T04:43:03.184Z,0.00
2019-02-20T04:44:03.242Z,0.00
2019-02-20T04:45:03.177Z,0.00
2019-02-20T04:46:03.235Z,0.00
2019-02-20T04:47:03.143Z,0.00
2019-02-20T04:48:03.161Z,0.00
2019-02-20T04:49:03.158Z,0.00
2019-02-20T04:50:03.113Z,0.00
2019-02-20T04:51:03.105Z,0.00
2019-02-20T04:52:04.175Z,0.00
2019-02-20T04:53:03.078Z,0.00
2019-02-20T04:54:12.697Z,0.00
2019-02-20T04:55:04.048Z,0.00
2019-02-20T04:56:09.686Z,0.00
2019-02-20T04:57:03.026Z,0.00
2019-02-20T04:58:03.057Z,0.00
2019-02-20T04:59:03.013Z,0.00
2019-02-20T05:00:04.011Z,0.00
2019-02-20T05:01:02.991Z,0.00
2019-02-20T05:02:03.028Z,0.00
2019-02-20T05:03:02.967Z,0.00
2019-02-20T05:04:02.975Z,0.00
2019-02-20T05:05:02.929Z,0.00
2019-02-20T05:06:02.990Z,0.00
2019-02-20T05:07:02.911Z,0.00
2019-02-20T05:08:02.930Z,0.00
2019-02-20T05:09:02.940Z,0.00
2019-02-20T05:10:02.882Z,0.00
2019-02-20T05:11:02.932Z,0.00
2019-02-20T05:12:02.858Z,0.00
2019-02-20T05:13:02.863Z,0.00
2019-02-20T05:14:02.842Z,0.00
2019-02-20T05:15:03.939Z,0.00
2019-02-20T05:16:02.813Z,0.00
2019-02-20T05:17:02.836Z,0.00
2019-02-20T05:18:02.794Z,0.00
2019-02-20T05:19:02.813Z,0.00
2019-02-20T05:20:02.849Z,0.00
2019-02-20T05:21:02.768Z,0.00
2019-02-20T05:22:02.785Z,0.00
2019-02-20T05:23:02.747Z,0.00
2019-02-20T05:24:03.788Z,0.00
2019-02-20T05:25:02.787Z,0.00
2019-02-20T05:26:02.707Z,0.00
2019-02-20T05:27:03.740Z,0.00
2019-02-20T05:28:02.688Z,0.00
2019-02-20T05:29:02.809Z,0.00
2019-02-20T05:30:02.728Z,0.00
2019-02-20T05:31:02.660Z,0.00
2019-02-20T05:32:02.659Z,0.00
2019-02-20T05:33:02.633Z,0.00
2019-02-20T05:34:02.743Z,0.00
2019-02-20T05:35:02.614Z,0.00
2019-02-20T05:36:02.630Z,0.00
2019-02-20T05:37:02.588Z,0.00
2019-02-20T05:38:02.672Z,0.00
2019-02-20T05:39:02.581Z,0.00
2019-02-20T05:40:02.604Z,0.00
2019-02-20T05:41:02.552Z,0.00
2019-02-20T05:42:09.187Z,0.00
2019-02-20T05:43:02.533Z,0.00
2019-02-20T05:44:03.551Z,0.00
2019-02-20T05:45:02.508Z,0.00
2019-02-20T05:46:02.483Z,0.00
2019-02-20T05:47:02.474Z,0.00
2019-02-20T05:48:04.597Z,0.00
2019-02-20T05:49:02.464Z,0.00
2019-02-20T05:50:09.385Z,0.00
2019-02-20T05:51:02.446Z,0.00
2019-02-20T05:52:02.418Z,0.00
2019-02-20T05:53:03.512Z,0.00
2019-02-20T05:54:02.416Z,0.00
2019-02-20T05:55:02.417Z,0.00
2019-02-20T05:56:02.378Z,0.00
2019-02-20T05:57:02.466Z,4.00
2019-02-20T05:58:02.358Z,0.00
2019-02-20T05:59:02.448Z,4.00
2019-02-20T06:00:02.339Z,4.00
2019-02-20T06:01:02.443Z,4.00
2019-02-20T06:02:02.321Z,8.00
2019-02-20T06:03:02.372Z,8.00
2019-02-20T06:04:02.310Z,12.00
2019-02-20T06:05:02.402Z,8.00
2019-02-20T06:06:02.285Z,12.00
2019-02-20T06:07:02.263Z,16.00
2019-02-20T06:08:02.252Z,16.00
2019-02-20T06:09:02.317Z,16.00
2019-02-20T06:10:02.233Z,16.00
2019-02-20T06:11:12.203Z,20.00
2019-02-20T06:12:03.207Z,24.00
2019-02-20T06:13:04.314Z,28.00
2019-02-20T06:14:02.203Z,28.00
2019-02-20T06:15:02.284Z,24.00
2019-02-20T06:16:02.167Z,32.00
2019-02-20T06:17:02.211Z,32.00
2019-02-20T06:18:02.143Z,36.00
2019-02-20T06:19:02.205Z,36.00
2019-02-20T06:20:02.123Z,44.00
2019-02-20T06:21:02.186Z,48.00
2019-02-20T06:22:02.108Z,56.00
2019-02-20T06:23:02.087Z,56.00
2019-02-20T06:24:02.085Z,60.00
2019-02-20T06:25:08.708Z,60.00
2019-02-20T06:26:02.069Z,68.00
2019-02-20T06:27:02.089Z,76.00
2019-02-20T06:28:02.061Z,80.00
2019-02-20T06:29:02.034Z,84.00
2019-02-20T06:30:02.042Z,92.00
2019-02-20T06:31:02.008Z,92.00
2019-02-20T06:32:02.032Z,96.00
2019-02-20T06:33:01.980Z,100.00
2019-02-20T06:34:02.071Z,108.00
2019-02-20T06:35:01.960Z,112.00
2019-02-20T06:36:02.012Z,120.00
2019-02-20T06:37:01.933Z,132.00
2019-02-20T06:38:01.938Z,132.00
2019-02-20T06:39:01.903Z,136.00
2019-02-20T06:40:02.034Z,144.00
2019-02-20T06:41:01.922Z,140.00
2019-02-20T06:42:01.922Z,140.00
2019-02-20T06:43:01.868Z,144.00
2019-02-20T06:44:01.864Z,148.00
2019-02-20T06:45:01.868Z,152.00
2019-02-20T06:46:01.885Z,156.00
2019-02-20T06:47:01.825Z,160.00
2019-02-20T06:48:01.927Z,168.00
2019-02-20T06:49:03.834Z,176.00
2019-02-20T06:50:01.896Z,188.00
2019-02-20T06:51:01.830Z,196.00
2019-02-20T06:52:01.777Z,208.00
2019-02-20T06:53:01.864Z,232.00
2019-02-20T06:54:01.747Z,252.00
2019-02-20T06:55:01.849Z,268.00
2019-02-20T06:56:01.731Z,288.00
2019-02-20T06:57:03.778Z,312.00
2019-02-20T06:58:01.936Z,336.00
2019-02-20T06:59:02.882Z,344.00
2019-02-20T07:00:01.690Z,340.00
2019-02-20T07:01:01.718Z,344.00
2019-02-20T07:02:01.663Z,356.00
2019-02-20T07:03:01.928Z,376.00
2019-02-20T07:04:01.641Z,404.00
2019-02-20T07:05:01.653Z,436.00
2019-02-20T07:06:01.641Z,468.00
2019-02-20T07:07:01.600Z,496.00
2019-02-20T07:08:01.673Z,508.00
2019-02-20T07:09:01.589Z,528.00
2019-02-20T07:10:01.586Z,544.00
2019-02-20T07:11:01.575Z,576.00
2019-02-20T07:12:01.554Z,616.00
2019-02-20T07:13:01.635Z,652.00
2019-02-20T07:14:01.535Z,704.00
2019-02-20T07:15:01.537Z,756.00
2019-02-20T07:16:02.549Z,820.00
2019-02-20T07:17:01.508Z,872.00
2019-02-20T07:18:01.566Z,908.00
2019-02-20T07:19:01.478Z,916.00
2019-02-20T07:20:01.505Z,896.00
2019-02-20T07:21:01.458Z,864.00
2019-02-20T07:22:01.529Z,844.00
2019-02-20T07:23:01.439Z,840.00
2019-02-20T07:24:01.472Z,852.00
2019-02-20T07:25:03.379Z,892.00
2019-02-20T07:26:01.446Z,956.00
2019-02-20T07:27:01.465Z,1044.00
2019-02-20T07:28:01.381Z,1144.00
2019-02-20T07:29:01.401Z,1252.00
2019-02-20T07:30:01.379Z,1344.00
2019-02-20T07:31:01.445Z,1424.00
2019-02-20T07:32:01.342Z,1456.00
2019-02-20T07:33:01.373Z,1456.00
2019-02-20T07:34:01.333Z,1440.00
2019-02-20T07:35:01.341Z,1440.00
2019-02-20T07:36:01.327Z,1436.00
2019-02-20T07:37:02.362Z,1412.00
2019-02-20T07:38:01.265Z,1408.00
2019-02-20T07:39:01.284Z,1424.00
2019-02-20T07:40:01.244Z,1464.00
2019-02-20T07:41:01.235Z,1512.00
2019-02-20T07:42:01.226Z,1556.00
2019-02-20T07:43:02.276Z,1612.00
2019-02-20T07:44:01.273Z,1680.00
2019-02-20T07:45:01.240Z,1796.00
2019-02-20T07:46:01.194Z,1924.00
2019-02-20T07:47:01.227Z,2036.00
2019-02-20T07:48:01.170Z,2136.00
2019-02-20T07:49:01.259Z,2248.00
2019-02-20T07:50:01.149Z,2384.00
2019-02-20T07:51:01.128Z,2504.00
2019-02-20T07:52:01.119Z,2660.00
2019-02-20T07:53:01.129Z,2804.00
2019-02-20T07:54:01.100Z,2932.00
2019-02-20T07:55:01.120Z,3020.00
2019-02-20T07:56:02.170Z,3068.00
2019-02-20T07:57:01.061Z,3112.00
2019-02-20T07:58:07.732Z,3164.00
2019-02-20T07:59:01.045Z,3204.00
2019-02-20T08:00:02.082Z,3268.00
2019-02-20T08:01:01.023Z,3432.00
2019-02-20T08:02:01.044Z,3536.00
2019-02-20T08:03:01.003Z,3588.00
2019-02-20T08:04:02.005Z,3572.00
2019-02-20T08:05:00.991Z,3512.00
2019-02-20T08:06:01.018Z,3428.00
2019-02-20T08:07:00.984Z,3432.00
2019-02-20T08:08:00.945Z,3488.00
2019-02-20T08:09:01.025Z,3560.00
2019-02-20T08:10:00.926Z,3692.00
2019-02-20T08:11:00.959Z,3728.00
2019-02-20T08:12:00.926Z,3728.00
2019-02-20T08:13:00.889Z,3680.00
2019-02-20T08:14:00.967Z,3672.00
2019-02-20T08:15:00.865Z,3740.00
2019-02-20T08:16:00.919Z,3776.00
2019-02-20T08:17:00.815Z,3808.00
2019-02-20T08:18:00.827Z,3840.00
2019-02-20T08:19:00.883Z,3832.00
2019-02-20T08:20:00.824Z,3796.00
2019-02-20T08:21:00.830Z,3864.00
2019-02-20T08:22:00.792Z,3944.00
2019-02-20T08:23:00.771Z,4088.00
2019-02-20T08:24:00.775Z,4288.00
2019-02-20T08:25:00.851Z,4492.00
2019-02-20T08:26:00.766Z,4832.00
2019-02-20T08:27:00.850Z,4964.00
2019-02-20T08:28:00.705Z,5276.00
2019-02-20T08:29:00.773Z,5908.00
2019-02-20T08:30:00.745Z,6264.00
2019-02-20T08:31:00.724Z,6660.00
2019-02-20T08:32:00.687Z,6616.00
2019-02-20T08:33:00.754Z,6836.00
2019-02-20T08:34:00.648Z,7276.00
2019-02-20T08:35:00.715Z,7228.00
2019-02-20T08:36:00.638Z,7408.00
2019-02-20T08:37:00.706Z,7288.00
2019-02-20T08:38:00.610Z,6740.00
2019-02-20T08:39:00.591Z,6440.00
2019-02-20T08:40:02.658Z,6404.00
2019-02-20T08:41:00.589Z,6380.00
2019-02-20T08:42:00.668Z,6448.00
2019-02-20T08:43:00.551Z,6572.00
2019-02-20T08:44:00.598Z,6672.00
2019-02-20T08:45:00.539Z,6696.00
2019-02-20T08:46:00.580Z,6788.00
2019-02-20T08:47:00.521Z,6852.00
2019-02-20T08:48:07.220Z,6880.00
2019-02-20T08:49:00.516Z,6788.00
2019-02-20T08:50:00.521Z,7184.00
2019-02-20T08:51:00.520Z,7380.00
2019-02-20T08:52:00.480Z,7124.00
2019-02-20T08:53:00.522Z,7560.00
2019-02-20T08:54:00.443Z,8700.00
2019-02-20T08:55:00.426Z,8432.00
2019-02-20T08:56:00.413Z,7804.00
2019-02-20T08:57:00.484Z,8196.00
2019-02-20T08:58:00.379Z,8800.00
2019-02-20T08:59:00.429Z,9008.00
2019-02-20T09:00:00.365Z,9680.00
2019-02-20T09:01:00.368Z,12576.00
2019-02-20T09:02:00.335Z,19264.00
2019-02-20T09:03:00.387Z,24384.00
2019-02-20T09:04:00.331Z,20960.00
2019-02-20T09:05:00.428Z,22784.00
2019-02-20T09:06:00.347Z,26592.00
2019-02-20T09:07:00.280Z,23392.00
2019-02-20T09:08:00.339Z,18624.00
2019-02-20T09:09:00.276Z,18912.00
2019-02-20T09:10:00.370Z,19584.00
2019-02-20T09:11:00.259Z,19488.00
2019-02-20T09:12:00.220Z,19840.00
2019-02-20T09:13:01.435Z,17952.00
2019-02-20T09:14:00.422Z,19488.00
2019-02-20T09:15:00.510Z,23872.00
2019-02-20T09:16:00.485Z,26816.00
2019-02-20T09:17:00.353Z,26048.00
2019-02-20T09:18:00.162Z,28256.00
2019-02-20T09:19:00.183Z,30208.00
2019-02-20T09:20:00.329Z,30144.00
2019-02-20T09:21:00.260Z,27712.00
2019-02-20T09:22:00.134Z,25248.00
2019-02-20T09:23:00.155Z,23584.00
2019-02-20T09:24:00.119Z,22208.00
2019-02-20T09:25:00.280Z,21440.00
2019-02-20T09:26:00.110Z,20416.00
2019-02-20T09:27:02.166Z,18080.00
2019-02-20T09:28:01.116Z,16384.00
2019-02-20T09:29:00.061Z,14336.00
2019-02-20T09:30:00.334Z,11836.00
2019-02-20T09:31:00.038Z,11848.00
2019-02-20T09:32:00.068Z,11040.00
2019-02-20T09:32:59.999Z,11812.00
2019-02-20T09:34:00.099Z,12668.00
2019-02-20T09:34:59.990Z,12576.00
2019-02-20T09:36:01.031Z,9688.00
2019-02-20T09:36:59.961Z,8328.00
2019-02-20T09:37:59.972Z,7872.00
2019-02-20T09:38:59.922Z,7592.00
2019-02-20T09:40:01.023Z,7428.00
2019-02-20T09:40:59.925Z,7236.00
2019-02-20T09:41:59.942Z,7000.00
2019-02-20T09:42:59.887Z,6920.00
2019-02-20T09:43:59.897Z,6808.00
2019-02-20T09:44:59.875Z,6704.00
2019-02-20T09:45:59.942Z,6640.00
2019-02-20T09:46:59.844Z,6584.00
2019-02-20T09:47:59.946Z,6464.00
2019-02-20T09:48:59.816Z,6404.00
2019-02-20T09:49:59.814Z,6324.00
2019-02-20T09:50:59.896Z,6376.00
2019-02-20T09:51:59.786Z,6524.00
2019-02-20T09:52:59.888Z,6612.00
2019-02-20T09:53:59.767Z,6740.00
2019-02-20T09:54:59.758Z,6784.00
2019-02-20T09:55:59.861Z,6768.00
2019-02-20T09:56:59.731Z,6776.00
2019-02-20T09:58:01.780Z,6808.00
2019-02-20T09:58:59.720Z,6820.00
2019-02-20T09:59:59.700Z,6804.00
2019-02-20T10:00:59.710Z,6836.00
2019-02-20T10:01:59.704Z,6820.00
2019-02-20T10:02:59.672Z,6896.00
2019-02-20T10:03:59.742Z,6884.00
2019-02-20T10:04:59.648Z,6976.00
2019-02-20T10:05:59.653Z,7004.00
2019-02-20T10:06:59.666Z,7016.00
2019-02-20T10:07:59.608Z,6916.00
2019-02-20T10:08:59.674Z,6780.00
2019-02-20T10:09:59.580Z,6672.00
2019-02-20T10:10:59.598Z,6572.00
2019-02-20T10:12:00.605Z,6476.00
2019-02-20T10:12:59.557Z,6424.00
2019-02-20T10:13:59.616Z,6368.00
2019-02-20T10:14:59.537Z,6424.00
2019-02-20T10:15:59.568Z,6420.00
2019-02-20T10:16:59.527Z,6340.00
2019-02-20T10:18:00.508Z,6296.00
2019-02-20T10:18:59.485Z,6436.00
2019-02-20T10:19:59.519Z,6532.00
2019-02-20T10:20:59.479Z,6616.00
2019-02-20T10:21:59.449Z,6860.00
2019-02-20T10:22:59.452Z,7128.00
2019-02-20T10:23:59.493Z,6860.00
2019-02-20T10:24:59.427Z,6008.00
2019-02-20T10:26:01.212Z,5696.00
2019-02-20T10:27:00.877Z,5532.00
2019-02-20T10:27:59.372Z,5092.00
2019-02-20T10:28:59.433Z,5352.00
2019-02-20T10:29:59.373Z,5384.00
2019-02-20T10:30:59.424Z,5428.00
2019-02-20T10:31:59.335Z,5460.00
2019-02-20T10:32:59.325Z,5388.00
2019-02-20T10:33:59.315Z,5304.00
2019-02-20T10:34:59.325Z,5280.00
2019-02-20T10:35:59.336Z,5236.00
2019-02-20T10:36:59.377Z,5136.00
2019-02-20T10:37:59.246Z,5248.00
2019-02-20T10:38:59.306Z,5360.00
2019-02-20T10:39:59.247Z,5408.00
2019-02-20T10:40:59.250Z,5384.00
2019-02-20T10:41:59.238Z,5360.00
2019-02-20T10:42:59.299Z,5312.00
2019-02-20T10:43:59.199Z,5304.00
2019-02-20T10:44:59.239Z,5180.00
2019-02-20T10:45:59.180Z,5088.00
2019-02-20T10:46:59.222Z,5008.00
2019-02-20T10:47:59.150Z,4964.00
2019-02-20T10:48:59.143Z,4980.00
2019-02-20T10:49:59.144Z,5000.00
2019-02-20T10:51:01.182Z,4912.00
2019-02-20T10:51:59.110Z,5024.00
2019-02-20T10:53:00.193Z,4832.00
2019-02-20T10:53:59.096Z,5084.00
2019-02-20T10:54:59.084Z,5444.00
2019-02-20T10:55:59.174Z,5592.00
2019-02-20T10:56:59.077Z,5920.00
2019-02-20T10:57:59.169Z,6024.00
2019-02-20T10:58:59.036Z,5940.00
2019-02-20T10:59:59.027Z,6020.00
2019-02-20T11:00:59.007Z,6256.00
2019-02-20T11:01:59.127Z,6436.00
2019-02-20T11:02:58.998Z,6536.00
2019-02-20T11:03:59.018Z,6300.00
2019-02-20T11:04:58.958Z,6296.00
2019-02-20T11:05:58.959Z,6232.00
2019-02-20T11:06:59.070Z,6088.00
2019-02-20T11:07:58.942Z,6240.00
2019-02-20T11:08:58.951Z,6224.00
2019-02-20T11:09:58.921Z,6148.00
2019-02-20T11:10:58.902Z,6040.00
2019-02-20T11:11:58.877Z,5960.00
2019-02-20T11:12:58.922Z,5920.00
2019-02-20T11:13:58.862Z,5868.00
2019-02-20T11:14:58.963Z,5860.00
2019-02-20T11:15:58.970Z,5960.00
2019-02-20T11:16:58.941Z,5984.00
2019-02-20T11:17:58.846Z,6004.00
2019-02-20T11:18:58.836Z,6168.00
2019-02-20T11:19:58.795Z,6380.00
2019-02-20T11:20:59.897Z,6532.00
2019-02-20T11:21:58.788Z,6692.00
2019-02-20T11:22:59.829Z,6900.00
2019-02-20T11:23:58.737Z,6976.00
2019-02-20T11:24:58.838Z,7076.00
2019-02-20T11:25:58.735Z,7056.00
2019-02-20T11:26:58.728Z,7160.00
2019-02-20T11:27:58.709Z,6988.00
2019-02-20T11:28:58.709Z,6756.00
2019-02-20T11:29:58.677Z,6428.00
2019-02-20T11:30:58.751Z,6324.00
2019-02-20T11:31:58.670Z,6292.00
2019-02-20T11:32:59.701Z,6180.00
2019-02-20T11:33:58.644Z,5876.00
2019-02-20T11:34:58.742Z,5856.00
2019-02-20T11:35:58.613Z,5060.00
2019-02-20T11:36:58.721Z,4184.00
2019-02-20T11:37:58.623Z,4504.00
2019-02-20T11:38:58.594Z,4952.00
2019-02-20T11:39:58.656Z,5360.00
2019-02-20T11:40:58.565Z,5372.00
2019-02-20T11:41:58.645Z,5984.00
2019-02-20T11:42:58.555Z,6184.00
2019-02-20T11:43:58.636Z,6248.00
2019-02-20T11:44:58.531Z,6104.00
2019-02-20T11:45:58.571Z,5476.00
2019-02-20T11:46:58.517Z,5004.00
2019-02-20T11:47:58.499Z,4948.00
2019-02-20T11:48:58.481Z,4520.00
2019-02-20T11:49:59.569Z,3944.00
2019-02-20T11:50:58.459Z,3968.00
2019-02-20T11:51:58.521Z,4036.00
2019-02-20T11:52:58.430Z,3948.00
2019-02-20T11:53:58.410Z,4132.00
2019-02-20T11:54:58.412Z,4376.00
2019-02-20T11:55:58.453Z,4724.00
2019-02-20T11:56:58.403Z,4256.00
2019-02-20T11:58:00.761Z,3956.00
2019-02-20T11:58:58.373Z,4024.00
2019-02-20T11:59:58.353Z,4196.00
2019-02-20T12:00:58.414Z,4360.00
2019-02-20T12:01:58.344Z,4116.00
2019-02-20T12:02:58.435Z,4168.00
2019-02-20T12:03:58.315Z,4696.00
2019-02-20T12:04:58.286Z,4756.00
2019-02-20T12:05:58.282Z,4852.00
2019-02-20T12:06:58.356Z,4768.00
2019-02-20T12:07:58.268Z,4548.00
2019-02-20T12:08:58.337Z,4704.00
2019-02-20T12:09:58.249Z,4660.00
2019-02-20T12:10:58.278Z,4716.00
2019-02-20T12:11:58.221Z,4536.00
2019-02-20T12:12:58.309Z,4440.00
2019-02-20T12:13:58.189Z,4620.00
2019-02-20T12:14:58.240Z,4576.00
2019-02-20T12:15:58.175Z,4548.00
2019-02-20T12:17:00.271Z,4576.00
2019-02-20T12:17:58.144Z,4600.00
2019-02-20T12:18:59.246Z,4684.00
2019-02-20T12:19:58.123Z,4676.00
2019-02-20T12:20:58.119Z,4780.00
2019-02-20T12:21:58.113Z,4860.00
2019-02-20T12:22:59.104Z,4884.00
2019-02-20T12:23:58.074Z,4820.00
2019-02-20T12:24:59.388Z,4776.00
2019-02-20T12:25:58.075Z,4752.00
2019-02-20T12:26:58.056Z,4696.00
2019-02-20T12:27:58.136Z,4684.00
2019-02-20T12:28:58.017Z,4680.00
2019-02-20T12:29:58.068Z,4672.00
2019-02-20T12:30:58.017Z,4708.00
2019-02-20T12:31:57.999Z,4676.00
2019-02-20T12:32:57.978Z,4496.00
2019-02-20T12:33:58.042Z,4280.00
2019-02-20T12:34:57.959Z,4052.00
2019-02-20T12:35:57.979Z,3912.00
2019-02-20T12:36:57.949Z,3952.00
2019-02-20T12:37:58.011Z,4092.00
2019-02-20T12:38:57.915Z,4176.00
2019-02-20T12:39:57.941Z,4272.00
2019-02-20T12:40:57.892Z,4348.00